createdAt,value
2022-08-17T00:02:25.893Z,62.36
2022-08-17T00:07:30.881Z,61.10
2022-08-17T00:12:44.335Z,62.42
2022-08-17T00:17:49.125Z,62.23
2022-08-17T00:23:02.593Z,61.76
2022-08-17T00:28:06.145Z,62.40
2022-08-17T00:33:15.711Z,64.29
2022-08-17T00:38:21.592Z,64.77
2022-08-17T00:43:30.927Z,65.59
2022-08-17T00:48:34.489Z,66.59
2022-08-17T00:53:51.294Z,65.57
2022-08-17T00:58:56.188Z,66.14
2022-08-17T01:03:59.886Z,66.17
2022-08-17T01:09:05.529Z,66.29
2022-08-17T01:14:08.921Z,65.02
2022-08-17T01:19:17.233Z,66.53
2022-08-17T01:24:21.447Z,65.86
2022-08-17T01:29:25.397Z,66.59
2022-08-17T01:34:42.831Z,66.04
2022-08-17T01:39:56.979Z,65.79
2022-08-17T01:45:05.232Z,64.92
2022-08-17T01:50:10.771Z,65.79
2022-08-17T01:55:18.033Z,66.60
2022-08-17T02:00:20.861Z,65.55
2022-08-17T02:05:23.666Z,66.43
2022-08-17T02:10:33.708Z,67.68
2022-08-17T02:15:37.071Z,67.74
2022-08-17T02:20:42.511Z,66.92
2022-08-17T02:25:48.853Z,67.70
2022-08-17T02:31:01.353Z,67.93
2022-08-17T02:36:08.925Z,67.43
2022-08-17T02:41:13.419Z,69.25
2022-08-17T02:46:16.097Z,67.93
2022-08-17T02:51:19.402Z,69.57
2022-08-17T02:56:23.663Z,70.22
2022-08-17T03:01:28.024Z,71.00
2022-08-17T03:06:31.791Z,71.57
2022-08-17T03:11:36.126Z,72.36
2022-08-17T03:16:38.976Z,71.93
2022-08-17T03:21:42.117Z,72.23
2022-08-17T03:26:46.313Z,72.55
2022-08-17T03:31:49.711Z,72.51
2022-08-17T03:36:52.538Z,72.99
2022-08-17T03:42:02.585Z,73.85
2022-08-17T03:47:22.964Z,73.03
2022-08-17T03:52:43.241Z,73.70
2022-08-17T03:57:48.889Z,74.35
2022-08-17T04:02:51.879Z,73.81
2022-08-17T04:07:54.970Z,74.09
2022-08-17T04:12:59.356Z,74.29
2022-08-17T04:18:02.142Z,74.36
2022-08-17T04:23:09.388Z,74.43
2022-08-17T04:28:16.138Z,74.93
2022-08-17T04:33:21.771Z,74.91
2022-08-17T04:38:26.762Z,75.06
2022-08-17T04:43:32.530Z,75.49
2022-08-17T04:48:38.016Z,75.77
2022-08-17T04:53:42.469Z,75.44
2022-08-17T04:58:49.782Z,75.37
2022-08-17T05:03:53.981Z,75.66
2022-08-17T05:08:57.947Z,75.43
2022-08-17T05:14:02.138Z,75.20
2022-08-17T05:19:04.958Z,75.97
2022-08-17T05:24:38.177Z,75.03
2022-08-17T05:29:34.298Z,74.78
2022-08-17T05:34:38.415Z,75.85
2022-08-17T05:39:41.725Z,75.80
2022-08-17T05:44:45.893Z,74.81
2022-08-17T05:49:48.965Z,74.74
2022-08-17T05:55:03.720Z,75.25
2022-08-17T06:00:17.010Z,75.32
2022-08-17T06:05:38.678Z,73.75
2022-08-17T06:10:48.134Z,74.20
2022-08-17T06:15:59.200Z,75.17
2022-08-17T06:21:06.404Z,74.40
2022-08-17T06:26:13.895Z,72.95
2022-08-17T06:31:22.547Z,73.42
2022-08-17T06:36:40.750Z,74.23
2022-08-17T06:41:52.067Z,73.48
2022-08-17T06:47:04.595Z,74.19
2022-08-17T06:52:43.432Z,74.19
2022-08-17T06:57:43.367Z,74.56
2022-08-17T07:02:54.312Z,73.84
2022-08-17T07:08:04.352Z,72.92
2022-08-17T07:13:22.846Z,73.89
2022-08-17T07:18:33.030Z,73.05
2022-08-17T07:23:50.743Z,72.41
2022-08-17T07:28:56.148Z,72.83
2022-08-17T07:34:06.706Z,72.29
2022-08-17T07:39:10.633Z,70.52
2022-08-17T07:44:16.374Z,70.98
2022-08-17T07:49:37.092Z,68.81
2022-08-17T07:54:42.037Z,67.74
2022-08-17T08:00:12.632Z,65.63
2022-08-17T08:05:30.719Z,64.81
2022-08-17T08:11:00.237Z,65.01
2022-08-17T08:16:24.378Z,63.30
2022-08-17T08:21:46.442Z,62.16
2022-08-17T08:26:58.019Z,62.82
2022-08-17T08:32:08.754Z,61.46
2022-08-17T08:37:35.529Z,60.79
2022-08-17T08:42:51.172Z,61.05
2022-08-17T08:48:22.781Z,61.19
2022-08-17T08:53:48.567Z,61.36
2022-08-17T08:58:59.214Z,59.94
2022-08-17T09:04:24.568Z,59.22
2022-08-17T09:09:43.771Z,59.03
2022-08-17T09:14:55.443Z,57.24
2022-08-17T09:20:05.020Z,56.67
2022-08-17T09:25:13.547Z,55.37
2022-08-17T09:30:16.778Z,54.53
2022-08-17T09:35:25.060Z,54.76
2022-08-17T09:40:46.089Z,53.32
2022-08-17T09:45:54.263Z,52.91
2022-08-17T09:51:06.415Z,51.98
2022-08-17T09:56:35.178Z,50.53
2022-08-17T10:01:40.739Z,50.36
2022-08-17T10:06:53.407Z,50.10
2022-08-17T10:12:23.578Z,52.11
2022-08-17T10:17:42.318Z,52.71
2022-08-17T10:23:10.037Z,51.06
2022-08-17T10:28:20.301Z,51.40
2022-08-17T10:33:27.877Z,51.55
2022-08-17T10:38:47.038Z,51.89
2022-08-17T10:44:37.175Z,51.45
2022-08-17T10:49:30.273Z,51.19
2022-08-17T10:54:39.185Z,49.95
2022-08-17T10:59:53.905Z,50.50
2022-08-17T11:05:10.200Z,49.63
2022-08-17T11:10:28.782Z,49.67
2022-08-17T11:15:51.450Z,48.19
2022-08-17T11:21:13.333Z,47.70
2022-08-17T11:26:26.152Z,47.48
2022-08-17T11:31:38.474Z,47.15
2022-08-17T11:37:08.725Z,46.69
2022-08-17T11:42:27.127Z,46.65
2022-08-17T11:48:16.360Z,45.54
2022-08-17T11:54:31.512Z,45.55
2022-08-17T12:00:08.357Z,45.70
2022-08-17T12:05:30.914Z,44.92
2022-08-17T12:10:37.256Z,44.77
2022-08-17T12:15:49.511Z,43.14
2022-08-17T12:21:12.089Z,42.78
2022-08-17T12:26:22.101Z,42.18
2022-08-17T12:31:27.383Z,42.51
2022-08-17T12:36:33.018Z,43.58
2022-08-17T12:41:39.432Z,41.87
2022-08-17T12:46:57.365Z,42.06
2022-08-17T12:52:13.980Z,41.12
2022-08-17T12:57:19.597Z,42.26
2022-08-17T13:02:33.392Z,42.26
2022-08-17T13:07:43.090Z,41.96
2022-08-17T13:12:46.006Z,42.06
2022-08-17T13:18:02.084Z,41.10
2022-08-17T13:23:12.471Z,41.22
2022-08-17T13:28:35.730Z,41.00
2022-08-17T13:33:43.710Z,40.23
2022-08-17T13:38:51.664Z,40.50
2022-08-17T13:43:54.494Z,39.36
2022-08-17T13:49:02.921Z,38.82
2022-08-17T13:54:20.317Z,37.78
2022-08-17T13:59:38.212Z,38.01
2022-08-17T14:04:54.757Z,37.47
2022-08-17T14:10:02.026Z,37.30
2022-08-17T14:15:06.128Z,37.53
2022-08-17T14:20:12.144Z,37.60
2022-08-17T14:25:19.544Z,37.19
2022-08-17T14:30:24.909Z,36.87
2022-08-17T14:35:29.315Z,36.53
2022-08-17T14:40:34.696Z,36.43
2022-08-17T14:45:37.494Z,36.38
2022-08-17T14:50:43.505Z,36.96
2022-08-17T14:55:47.700Z,38.41
2022-08-17T15:00:51.814Z,38.67
2022-08-17T15:05:55.230Z,41.32
2022-08-17T15:10:59.294Z,42.93
2022-08-17T15:16:02.507Z,45.57
2022-08-17T15:21:05.908Z,46.18
2022-08-17T15:26:12.574Z,45.46
2022-08-17T15:31:15.687Z,46.14
2022-08-17T15:36:19.017Z,46.60
2022-08-17T15:41:23.190Z,47.30
2022-08-17T15:46:27.147Z,49.66
2022-08-17T15:51:31.106Z,49.33
2022-08-17T15:56:35.334Z,55.07
2022-08-17T16:03:01.792Z,61.25
2022-08-17T16:07:02.508Z,73.94
2022-08-17T16:12:14.791Z,78.03
2022-08-17T16:17:38.301Z,78.46
2022-08-17T16:22:43.875Z,77.99
2022-08-17T16:27:53.413Z,77.24
2022-08-17T16:32:58.241Z,79.26
2022-08-17T16:38:01.134Z,83.61
2022-08-17T16:43:10.539Z,85.38
2022-08-17T16:48:15.616Z,86.61
2022-08-17T16:53:19.049Z,86.87
2022-08-17T16:58:26.213Z,88.07
2022-08-17T17:03:31.329Z,87.89
2022-08-17T17:08:42.095Z,89.00
2022-08-17T17:13:54.119Z,89.79
2022-08-17T17:19:10.176Z,90.73
2022-08-17T17:24:18.706Z,90.61
2022-08-17T17:29:33.970Z,90.97
2022-08-17T17:34:58.759Z,90.83
2022-08-17T17:40:06.185Z,90.38
2022-08-17T17:45:18.302Z,90.18
2022-08-17T17:50:25.792Z,90.04
2022-08-17T17:56:02.814Z,91.05
2022-08-17T18:01:20.723Z,90.29
2022-08-17T18:06:35.540Z,89.97
2022-08-17T18:12:02.558Z,90.49
2022-08-17T18:17:07.823Z,89.84
2022-08-17T18:22:17.703Z,89.23
2022-08-17T18:27:24.811Z,89.54
2022-08-17T18:32:35.774Z,89.78
2022-08-17T18:37:42.715Z,89.93
2022-08-17T18:42:47.620Z,89.34
2022-08-17T18:47:56.085Z,89.86
2022-08-17T18:53:21.478Z,90.40
2022-08-17T18:58:29.765Z,89.66
2022-08-17T19:03:43.418Z,89.94
2022-08-17T19:08:46.243Z,89.60
2022-08-17T19:13:55.905Z,89.06
2022-08-17T19:19:05.938Z,89.35
2022-08-17T19:24:19.223Z,88.98
2022-08-17T19:29:26.287Z,89.18
2022-08-17T19:34:34.609Z,89.03
2022-08-17T19:39:44.789Z,89.46
2022-08-17T19:44:56.557Z,88.89
2022-08-17T19:50:09.768Z,88.65
2022-08-17T19:55:22.147Z,88.87
2022-08-17T20:00:25.369Z,88.34
2022-08-17T20:05:44.415Z,87.95
2022-08-17T20:11:00.427Z,88.29
2022-08-17T20:16:04.743Z,87.69
2022-08-17T20:21:19.975Z,87.59
2022-08-17T20:26:27.296Z,87.42
2022-08-17T20:31:45.913Z,87.24
2022-08-17T20:37:01.703Z,87.39
2022-08-17T20:42:09.030Z,87.21
2022-08-17T20:47:21.790Z,87.08
2022-08-17T20:52:47.891Z,87.06
2022-08-17T20:57:50.828Z,86.75
2022-08-17T21:03:50.567Z,87.60
2022-08-17T21:09:29.658Z,87.24
2022-08-17T21:14:42.131Z,87.12
2022-08-17T21:20:11.069Z,86.58
2022-08-17T21:25:34.506Z,86.21
2022-08-17T21:30:47.598Z,86.25
2022-08-17T21:35:54.336Z,85.91
2022-08-17T21:41:02.922Z,85.81
2022-08-17T21:46:09.384Z,85.58
2022-08-17T21:51:17.617Z,85.57
2022-08-17T21:56:30.233Z,84.97
2022-08-17T22:01:35.841Z,84.54
2022-08-17T22:06:41.028Z,85.13
2022-08-17T22:12:04.402Z,84.96
2022-08-17T22:17:15.710Z,85.39
2022-08-17T22:22:28.665Z,85.15
2022-08-17T22:27:54.077Z,85.48
2022-08-17T22:32:58.125Z,84.61
2022-08-17T22:38:29.687Z,85.31
2022-08-17T22:43:43.084Z,85.27
2022-08-17T22:48:50.179Z,85.82
2022-08-17T22:54:13.529Z,85.94
2022-08-17T22:59:34.102Z,85.92
2022-08-17T23:04:39.458Z,85.29
2022-08-17T23:09:42.694Z,85.78
2022-08-17T23:14:49.367Z,86.04
2022-08-17T23:19:52.169Z,85.80
2022-08-17T23:24:55.210Z,86.23
2022-08-17T23:29:59.854Z,86.18
2022-08-17T23:35:02.634Z,86.29
2022-08-17T23:40:06.402Z,86.82
2022-08-17T23:45:11.339Z,86.80
2022-08-17T23:50:14.553Z,87.15
2022-08-17T23:55:17.590Z,87.16
